Brookhaven Weather

Current Time: 01:07 Zulu

HWV METARs

Local Time Temperature Dew Point Wind Direction Wind Speed Wind Gust Sky Vis.
7/13/2020 12:56:00 AM 25.0° c 18.9° c 230° 7 kt - CLR 10.0 sm
7/12/2020 11:56:00 PM 26.1° c 18.3° c 200° 9 kt - CLR 10.0 sm
7/12/2020 10:56:00 PM 27.2° c 17.8° c 220° 8 kt 17kt CLR 10.0 sm
7/12/2020 9:56:00 PM 28.9° c 17.2° c 210° 11 kt 15kt CLR 10.0 sm

ISP TAF:

KISP 122341Z 1300/1324 22009KT P6SM FEW070 SCT120 
FM130500 22004KT P6SM VCSH SCT060 BKN120 
FM131000 VRB03KT P6SM SCT060 SCT200 
FM131500 21009KT P6SM SCT050 SCT200 
FM131900 23010KT P6SM BKN060
Weather data provided by aviationweather.gov. Pilots must verify weather before flying.